Time;durP1;ratioP1;P1;durP2;ratioP2;P2;SDS_P1;SDS_P2;PMS_P1;PMS_P2;Temp;Humidity;BMP_temperature;BMP_pressure;BME280_temperature;BME280_humidity;BME280_pressure;Samples;Min_cycle;Max_cycle;Signal;HPM_P1;HPM_P2
2022/02/04 00:04:15;;;;;;;34.50;20.73;;;6.40;99.90;;;7.14;100.00;100185.13;5034618;28;20144;-76
2022/02/04 00:24:26;;;;;;;33.90;19.85;;;6.50;99.90;;;7.31;100.00;100166.28;5030995;28;20373;-74
2022/02/04 00:27:16;;;;;;;27.27;17.75;;;6.50;99.90;;;7.35;100.00;100177.50;5025419;28;20591;-74
2022/02/04 00:29:55;;;;;;;30.95;18.33;;;6.50;99.90;;;7.36;100.00;100179.09;5050550;28;20021;-76
2022/02/04 00:32:24;;;;;;;34.00;19.27;;;6.50;99.90;;;7.28;100.00;100174.50;5050479;28;20541;-74
2022/02/04 00:34:57;;;;;;;30.63;18.10;;;6.50;99.90;;;7.32;100.00;100165.09;5032737;28;20456;-74
2022/02/04 00:37:38;;;;;;;29.23;19.02;;;6.50;99.90;;;7.32;100.00;100167.88;5050851;28;20066;-75
2022/02/04 00:40:15;;;;;;;33.85;18.98;;;6.50;99.90;;;7.26;100.00;100172.06;5050622;28;20024;-75
2022/02/04 00:42:41;;;;;;;31.42;18.40;;;6.60;99.90;;;7.28;100.00;100169.75;5050528;28;20392;-75
2022/02/04 00:45:23;;;;;;;30.92;18.60;;;6.50;99.90;;;7.32;100.00;100173.44;5050382;28;20029;-74
2022/02/04 00:47:56;;;;;;;28.52;17.20;;;6.60;99.90;;;7.32;100.00;100176.22;5050457;28;20040;-74
2022/02/04 00:50:35;;;;;;;30.75;17.65;;;6.60;99.90;;;7.34;100.00;100170.31;5050308;28;20119;-74
2022/02/04 00:53:16;;;;;;;28.60;17.48;;;6.60;99.90;;;7.39;100.00;100170.88;5050226;28;20116;-76
2022/02/04 00:55:49;;;;;;;31.55;18.33;;;6.60;99.90;;;7.26;100.00;100160.13;5050321;28;20109;-74
2022/02/04 01:27:07;;;;;;;34.20;19.83;;;6.60;99.90;;;7.33;100.00;100165.91;5039634;28;20029;-77
2022/02/04 01:29:39;;;;;;;33.47;20.73;;;6.50;99.90;;;7.31;100.00;100160.72;5033535;28;20022;-75
2022/02/04 01:32:07;;;;;;;36.53;20.15;;;6.60;99.90;;;7.35;100.00;100163.63;5015733;28;20124;-74
2022/02/04 01:34:36;;;;;;;34.85;20.77;;;6.60;99.90;;;7.32;100.00;100170.66;5033793;28;20520;-76
2022/02/04 01:37:02;;;;;;;33.15;20.08;;;6.60;99.90;;;7.39;100.00;100176.44;5033847;28;20056;-75
2022/02/04 01:39:31;;;;;;;33.50;19.67;;;6.60;99.90;;;7.31;100.00;100171.03;5033394;28;20036;-77
2022/02/04 01:42:00;;;;;;;34.30;20.05;;;6.60;99.90;;;7.37;100.00;100170.44;5033509;28;20040;-75
2022/02/04 01:44:28;;;;;;;33.05;18.70;;;6.60;99.90;;;7.39;100.00;100159.78;5033310;28;20033;-75
2022/02/04 01:46:56;;;;;;;31.73;19.98;;;6.60;99.90;;;7.41;100.00;100174.16;5043269;28;20110;-75
2022/02/04 01:49:24;;;;;;;32.67;18.67;;;6.60;99.90;;;7.38;100.00;100165.69;5053288;28;20104;-76
2022/02/04 01:51:51;;;;;;;31.95;18.98;;;6.60;99.90;;;7.40;100.00;100166.16;5049346;28;20124;-76
2022/02/04 01:54:20;;;;;;;31.67;18.85;;;6.60;99.90;;;7.42;100.00;100155.50;5053378;28;20060;-75
2022/02/04 01:56:47;;;;;;;32.83;19.88;;;6.60;99.90;;;7.37;100.00;100164.88;5053205;28;20028;-74
2022/02/04 01:59:13;;;;;;;29.00;18.13;;;6.60;99.90;;;7.39;100.00;100156.19;5055180;28;20029;-75
2022/02/04 02:01:39;;;;;;;27.30;17.23;;;6.60;99.90;;;7.39;100.00;100153.41;5060814;28;20029;-76
2022/02/04 02:04:09;;;;;;;28.77;18.45;;;6.60;99.90;;;7.44;100.00;100155.97;5062113;28;20033;-75
2022/02/04 02:07:01;;;;;;;28.02;18.70;;;6.70;99.90;;;7.40;100.00;100141.16;5055640;28;20101;-75
2022/02/04 02:09:41;;;;;;;27.80;18.05;;;6.60;99.90;;;7.40;100.00;100144.75;5053194;28;20021;-76
2022/02/04 02:12:09;;;;;;;32.25;18.08;;;6.60;99.90;;;7.47;100.00;100140.56;5052864;28;20078;-76
2022/02/04 02:14:39;;;;;;;33.28;18.77;;;6.60;99.90;;;7.41;100.00;100137.22;5053031;28;20028;-75
2022/02/04 02:37:09;;;;;;;27.48;17.08;;;6.70;99.90;;;7.49;100.00;100116.81;5032911;28;20037;-77
2022/02/04 02:52:36;;;;;;;29.27;16.50;;;6.70;99.90;;;7.41;100.00;100101.09;5032267;28;20031;-75
2022/02/04 03:03:21;;;;;;;24.42;15.65;;;6.70;99.90;;;7.45;100.00;100117.88;5032045;28;20064;-75
2022/02/04 03:05:50;;;;;;;26.02;15.70;;;6.70;99.90;;;7.47;100.00;100110.00;5030597;28;20034;-74
2022/02/04 03:08:17;;;;;;;24.75;16.17;;;6.70;99.90;;;7.52;100.00;100106.97;5031990;28;20033;-74
2022/02/04 03:10:46;;;;;;;24.90;15.27;;;6.70;99.90;;;7.51;100.00;100113.69;5014140;28;20030;-75
2022/02/04 03:13:12;;;;;;;22.30;14.38;;;6.70;99.90;;;7.54;100.00;100113.81;5031862;28;20184;-75
2022/02/04 03:15:38;;;;;;;25.13;15.00;;;6.70;99.90;;;7.49;100.00;100105.69;5014087;28;20043;-75
2022/02/04 03:18:09;;;;;;;21.80;14.02;;;6.70;99.90;;;7.47;100.00;100107.22;5031683;28;20055;-74
2022/02/04 03:23:27;;;;;;;17.05;12.40;;;6.80;99.90;;;7.60;100.00;100108.81;5023546;28;20060;-75
2022/02/04 03:25:59;;;;;;;17.70;12.05;;;6.80;99.90;;;7.56;100.00;100107.88;5035976;28;20021;-76
2022/02/04 03:28:28;;;;;;;21.02;12.65;;;6.80;99.90;;;7.53;100.00;100111.38;5033589;28;20103;-75
2022/02/04 03:30:56;;;;;;;19.33;12.82;;;6.80;99.90;;;7.51;100.00;100111.72;5051250;28;20044;-76
2022/02/04 03:33:28;;;;;;;18.38;12.30;;;6.80;99.90;;;7.45;100.00;100106.75;5050027;28;20021;-75
2022/02/04 03:35:55;;;;;;;17.25;11.45;;;6.80;99.90;;;7.50;100.00;100109.28;5051433;28;20035;-76
2022/02/04 03:38:21;;;;;;;19.60;12.18;;;6.80;99.90;;;7.50;100.00;100114.84;5051292;28;20033;-76
2022/02/04 03:40:47;;;;;;;14.60;10.25;;;6.80;99.90;;;7.55;100.00;100112.63;5051323;28;20029;-74
2022/02/04 03:43:14;;;;;;;17.70;11.07;;;6.80;99.90;;;7.56;100.00;100108.69;5051106;28;20035;-75
2022/02/04 03:45:40;;;;;;;16.20;9.90;;;6.80;99.90;;;7.58;100.00;100106.38;5051326;28;20033;-76
2022/02/04 03:48:07;;;;;;;15.43;9.20;;;6.80;99.90;;;7.60;100.00;100100.47;5051102;28;20131;-75
2022/02/04 03:50:33;;;;;;;14.95;9.45;;;6.80;99.90;;;7.66;100.00;100102.66;5051323;28;20090;-75
2022/02/04 03:52:59;;;;;;;14.57;8.57;;;6.90;99.90;;;7.63;100.00;100105.31;5033170;28;20025;-74
2022/02/04 03:55:25;;;;;;;16.95;9.20;;;6.90;99.90;;;7.56;100.00;100099.53;5051095;28;20025;-76
2022/02/04 03:57:51;;;;;;;12.45;9.00;;;6.90;99.90;;;7.66;100.00;100087.94;5051156;28;20036;-76
2022/02/04 04:00:20;;;;;;;14.20;8.65;;;6.90;99.90;;;7.57;100.00;100079.75;5051036;28;20119;-76
2022/02/04 04:02:47;;;;;;;13.38;8.65;;;7.00;99.90;;;7.53;100.00;100075.25;5050893;28;20033;-76
2022/02/04 04:05:15;;;;;;;12.13;8.43;;;6.90;99.90;;;7.55;100.00;100068.16;5050898;28;20029;-75
2022/02/04 04:07:49;;;;;;;13.40;8.75;;;6.90;99.90;;;7.55;100.00;100070.94;5032863;28;20032;-75
2022/02/04 04:10:21;;;;;;;12.82;8.23;;;6.90;99.90;;;7.55;100.00;100070.94;5032782;28;20025;-75
2022/02/04 04:12:48;;;;;;;13.27;7.95;;;6.90;99.90;;;7.52;100.00;100068.88;5073358;22;20181;-78
2022/02/04 04:15:14;;;;;;;15.50;9.27;;;6.90;99.90;;;7.51;100.00;100066.47;5034981;28;20029;-81
2022/02/04 04:17:44;;;;;;;12.25;8.27;;;6.80;99.90;;;7.52;100.00;100060.53;5053687;28;20033;-82
2022/02/04 04:20:17;;;;;;;12.25;7.78;;;6.80;99.90;;;7.50;100.00;100062.88;5034763;28;20029;-81
2022/02/04 04:22:45;;;;;;;15.30;9.13;;;6.80;99.90;;;7.50;100.00;100056.50;5052515;28;20092;-81
2022/02/04 04:25:13;;;;;;;12.98;8.23;;;6.80;99.90;;;7.43;100.00;100065.44;5053036;28;20029;-83
2022/02/04 04:27:42;;;;;;;12.98;7.97;;;6.90;99.90;;;7.47;100.00;100060.78;5054078;28;20048;-84
2022/02/04 04:30:12;;;;;;;13.15;8.48;;;6.80;99.90;;;7.51;100.00;100063.69;5073424;28;20407;-82
2022/02/04 04:32:39;;;;;;;11.23;7.40;;;6.80;99.90;;;7.52;100.00;100071.66;5072461;28;20101;-82
2022/02/04 04:35:11;;;;;;;9.75;6.93;;;6.90;99.90;;;7.59;100.00;100063.53;5073327;28;20483;-83
2022/02/04 04:37:53;;;;;;;11.25;7.20;;;6.90;99.90;;;7.57;100.00;100070.59;5071428;28;20106;-83
2022/02/04 04:45:58;;;;;;;10.48;7.38;;;6.90;99.90;;;7.62;100.00;100073.94;5074072;28;20127;-82
2022/02/04 05:29:36;;;;;;;11.30;6.80;;;7.00;99.90;;;7.67;100.00;100042.31;5056521;28;20060;-82
2022/02/04 05:32:06;;;;;;;11.63;7.65;;;7.00;99.90;;;7.73;100.00;100038.13;5056258;28;20100;-84
2022/02/04 05:34:33;;;;;;;11.30;6.53;;;7.00;99.90;;;7.77;100.00;100044.59;5055968;28;20036;-83
2022/02/04 05:37:07;;;;;;;11.40;6.57;;;7.00;99.90;;;7.81;100.00;100043.53;5056562;28;20048;-83
2022/02/04 05:39:50;;;;;;;10.82;6.32;;;7.10;99.90;;;7.82;100.00;100047.94;5055485;28;20111;-82
2022/02/04 05:42:25;;;;;;;10.02;6.65;;;7.10;99.90;;;7.82;100.00;100039.59;5038530;28;20029;-83
2022/02/04 05:45:17;;;;;;;11.05;6.43;;;7.20;99.90;;;7.91;100.00;100036.63;5055799;28;20127;-82
2022/02/04 05:47:46;;;;;;;10.73;7.00;;;7.20;99.90;;;7.83;100.00;100032.84;5056845;28;20469;-82
2022/02/04 05:50:19;;;;;;;12.25;6.85;;;7.20;99.90;;;7.79;100.00;100026.41;5055770;28;20549;-82
2022/02/04 05:57:59;;;;;;;11.77;7.53;;;7.10;99.90;;;7.72;100.00;100023.41;5055354;28;20408;-84
2022/02/04 06:00:36;;;;;;;12.27;6.97;;;7.10;99.90;;;7.79;100.00;100022.81;5056762;28;20025;-82
2022/02/04 06:03:26;;;;;;;10.48;6.50;;;7.10;99.90;;;7.70;100.00;100024.94;5037942;28;20033;-84
2022/02/04 06:12:02;;;;;;;10.40;6.50;;;7.10;99.90;;;7.78;100.00;100021.19;5055144;28;20371;-84
2022/02/04 06:22:19;;;;;;;11.95;6.40;;;7.20;99.90;;;7.79;100.00;100000.56;5054389;28;20047;-85
2022/02/04 06:24:51;;;;;;;10.25;6.90;;;7.10;99.90;;;7.81;100.00;100015.72;5055189;28;20040;-85
2022/02/04 06:27:21;;;;;;;12.68;6.53;;;7.20;99.90;;;7.81;100.00;100012.94;5070691;28;20511;-84
2022/02/04 06:29:52;;;;;;;9.48;6.47;;;7.20;99.90;;;7.78;100.00;100007.28;5056667;28;20035;-82
2022/02/04 06:32:19;;;;;;;12.15;7.05;;;7.20;99.90;;;7.79;100.00;100011.69;5075160;28;20063;-82
2022/02/04 06:34:51;;;;;;;11.35;7.28;;;7.20;99.90;;;7.79;100.00;100009.72;5056714;28;20052;-81
2022/02/04 06:37:17;;;;;;;8.80;6.13;;;7.20;99.90;;;7.78;100.00;100013.66;5057147;28;20024;-83
2022/02/04 06:39:46;;;;;;;11.30;5.85;;;7.20;99.90;;;7.78;100.00;100010.88;5073511;28;20029;-83
2022/02/04 06:42:26;;;;;;;8.93;5.90;;;7.20;99.90;;;7.82;100.00;100006.22;5073452;28;20021;-80
2022/02/04 06:44:52;;;;;;;8.80;5.18;;;7.20;99.90;;;7.90;100.00;100005.25;5056769;28;20028;-82
2022/02/04 06:47:19;;;;;;;8.93;6.68;;;7.20;99.90;;;7.80;100.00;100008.53;5056201;28;20579;-83
2022/02/04 06:49:47;;;;;;;11.57;5.85;;;7.20;99.90;;;7.90;100.00;100007.22;5086252;28;20028;-85
2022/02/04 06:52:15;;;;;;;7.75;5.25;;;7.20;99.90;;;7.87;100.00;100005.97;5060324;28;20518;-85
2022/02/04 06:54:42;;;;;;;9.05;6.35;;;7.20;99.90;;;7.88;100.00;100004.81;5073994;28;20444;-83
2022/02/04 06:57:09;;;;;;;9.52;5.22;;;7.20;99.90;;;7.82;100.00;100000.66;5075212;28;20036;-84
2022/02/04 06:59:37;;;;;;;10.15;5.40;;;7.20;99.90;;;7.93;100.00;99998.97;5073815;28;20093;-80
2022/02/04 07:02:06;;;;;;;8.70;5.10;;;7.30;99.90;;;7.90;100.00;100001.66;5074427;28;20090;-82
2022/02/04 07:04:36;;;;;;;11.30;5.97;;;7.30;99.90;;;7.92;100.00;99996.56;5056942;28;20024;-83
2022/02/04 07:07:03;;;;;;;9.07;5.68;;;7.30;99.90;;;7.93;100.00;99998.97;5056137;28;20109;-82
2022/02/04 07:12:35;;;;;;;7.10;5.30;;;7.30;99.90;;;8.00;100.00;100005.88;5053724;28;20105;-81
2022/02/04 07:15:27;;;;;;;8.15;4.85;;;7.30;99.90;;;7.99;100.00;100004.28;5073984;28;20021;-82
2022/02/04 07:20:18;;;;;;;7.57;4.57;;;7.40;99.90;;;8.07;100.00;100004.09;5073620;28;20032;-84
2022/02/04 07:22:56;;;;;;;7.05;4.75;;;7.40;99.90;;;8.07;100.00;100000.53;5073345;28;20035;-81
2022/02/04 07:25:22;;;;;;;10.00;4.60;;;7.40;99.90;;;8.17;100.00;100003.59;5073070;28;20037;-82
2022/02/04 07:27:48;;;;;;;8.80;4.47;;;7.50;99.90;;;8.13;100.00;100007.44;5035884;28;20029;-85
2022/02/04 07:30:17;;;;;;;10.32;3.97;;;7.50;99.90;;;8.12;100.00;100011.41;5035567;28;20025;-81
2022/02/04 07:32:57;;;;;;;10.25;4.68;;;7.50;99.90;;;8.10;100.00;100006.19;5053340;28;20116;-81
2022/02/04 07:38:33;;;;;;;7.75;4.00;;;7.50;99.90;;;8.20;100.00;100013.19;5035384;28;20060;-81
2022/02/04 07:41:05;;;;;;;6.20;3.90;;;7.50;99.90;;;8.16;100.00;99999.19;5056338;28;20040;-83
2022/02/04 07:43:32;;;;;;;6.15;4.28;;;7.60;99.90;;;8.24;100.00;99984.31;5036389;28;20028;-81
2022/02/04 07:46:00;;;;;;;8.88;4.60;;;7.60;99.90;;;8.24;100.00;99989.88;5053290;28;20025;-81
2022/02/04 07:48:28;;;;;;;8.60;3.90;;;7.60;99.90;;;8.21;100.00;99989.78;5053537;28;20055;-83
2022/02/04 07:50:54;;;;;;;7.32;4.53;;;7.60;99.90;;;8.25;100.00;99985.91;5054046;28;20094;-81
2022/02/04 07:53:24;;;;;;;6.35;4.38;;;7.60;99.90;;;8.24;100.00;99997.41;5066807;28;20050;-83
2022/02/04 07:55:55;;;;;;;7.28;4.00;;;7.60;99.90;;;8.20;100.00;99982.59;5068114;28;20029;-83
2022/02/04 07:58:28;;;;;;;7.90;4.85;;;7.60;99.90;;;8.21;100.00;99978.66;5045557;28;20029;-82
2022/02/04 08:00:54;;;;;;;8.55;4.30;;;7.60;99.90;;;8.24;100.00;99973.19;5034193;28;20108;-82
2022/02/04 08:03:39;;;;;;;6.57;4.13;;;7.60;99.90;;;8.38;100.00;99973.53;5034269;28;20032;-82
2022/02/04 08:06:09;;;;;;;10.32;4.63;;;7.70;99.90;;;8.25;100.00;99977.56;5034898;28;20033;-79
2022/02/04 08:08:59;;;;;;;6.57;4.03;;;7.70;99.90;;;8.25;100.00;99969.22;5035030;28;20121;-83
2022/02/04 08:12:02;;;;;;;7.78;3.95;;;7.70;99.90;;;8.37;100.00;99976.69;5051912;28;20404;-81
2022/02/04 08:14:24;;;;;;;7.82;4.05;;;7.70;99.90;;;8.28;100.00;99976.88;5051578;28;20108;-81
2022/02/04 08:30:26;;;;;;;8.60;3.30;;;8.00;99.90;;;8.78;100.00;99975.31;5076302;28;20086;-84
2022/02/04 08:46:46;;;;;;;4.60;2.75;;;8.10;99.90;;;8.87;100.00;99954.44;5076494;28;20079;-82
2022/02/04 08:51:57;;;;;;;4.72;2.55;;;8.20;99.90;;;8.86;100.00;99944.47;5076327;28;20028;-81
2022/02/04 08:54:28;;;;;;;6.95;2.53;;;8.20;99.90;;;8.82;100.00;99951.13;5077490;28;20432;-81
2022/02/04 08:57:03;;;;;;;5.03;2.60;;;8.30;99.90;;;8.86;100.00;99952.81;5077662;28;20028;-81
2022/02/04 08:59:50;;;;;;;3.80;2.30;;;8.20;99.90;;;9.00;100.00;99953.16;5058893;28;20085;-81
2022/02/04 09:02:30;;;;;;;5.72;2.60;;;8.30;99.90;;;8.96;100.00;99943.91;5075430;28;20032;-81
2022/02/04 09:04:58;;;;;;;3.80;2.25;;;8.30;99.90;;;9.02;100.00;99952.00;5076548;28;20188;-79
2022/02/04 09:07:27;;;;;;;5.65;2.33;;;8.30;99.90;;;8.99;100.00;99937.59;5058589;28;20036;-79
2022/02/04 09:09:56;;;;;;;3.47;1.90;;;8.40;99.90;;;9.15;100.00;99945.09;5077280;28;20024;-82
2022/02/04 09:23:10;;;;;;;7.00;2.70;;;8.60;99.90;;;9.15;100.00;99939.53;5076222;28;20412;-81
2022/02/04 09:25:37;;;;;;;5.55;2.30;;;8.60;99.90;;;9.22;100.00;99953.59;5055914;28;20040;-81
2022/02/04 09:28:04;;;;;;;5.63;3.15;;;8.60;99.90;;;9.13;100.00;99937.09;5056545;28;20102;-82
2022/02/04 09:30:33;;;;;;;5.32;3.15;;;8.50;99.90;;;9.21;100.00;99935.28;5057776;28;20027;-83
2022/02/04 09:32:59;;;;;;;4.90;2.92;;;8.50;99.90;;;9.20;100.00;99934.47;5057264;28;20395;-82
2022/02/04 09:35:25;;;;;;;4.03;2.80;;;8.50;99.90;;;9.07;100.00;99923.84;5040524;28;20174;-81
2022/02/04 09:37:55;;;;;;;4.88;3.33;;;8.50;99.90;;;8.98;100.00;99924.06;5039278;28;20029;-84
2022/02/04 09:40:22;;;;;;;4.80;3.42;;;8.30;99.90;;;8.95;100.00;99922.81;5055071;28;20075;-80
2022/02/04 09:42:49;;;;;;;4.88;3.25;;;8.30;99.90;;;8.86;100.00;99918.63;5055050;28;20029;-82
2022/02/04 09:45:22;;;;;;;6.93;3.20;;;8.30;99.90;;;8.78;100.00;99908.47;5054152;28;20504;-83
2022/02/04 09:48:04;;;;;;;4.88;3.35;;;8.20;99.90;;;8.82;100.00;99910.19;5036960;28;20029;-83
2022/02/04 09:50:38;;;;;;;4.50;2.85;;;8.20;99.90;;;8.91;100.00;99899.63;5038077;28;20051;-82
2022/02/04 10:16:15;;;;;;;5.25;3.70;;;7.90;99.90;;;8.55;100.00;99890.84;5055275;28;20126;-81
2022/02/04 10:18:51;;;;;;;6.50;3.65;;;7.90;99.90;;;8.64;100.00;99895.03;5055238;28;20499;-79
2022/02/04 10:21:17;;;;;;;6.22;3.25;;;7.90;99.90;;;8.43;100.00;99883.44;5056774;28;20399;-83
2022/02/04 10:24:03;;;;;;;4.90;3.53;;;7.90;99.90;;;8.43;100.00;99881.47;5056320;28;20036;-80
2022/02/04 10:26:29;;;;;;;4.85;3.22;;;7.80;99.90;;;8.49;100.00;99879.19;5065898;28;20491;-80
2022/02/04 10:28:55;;;;;;;5.57;4.03;;;7.80;99.90;;;8.48;100.00;99878.38;5058765;28;20056;-80
2022/02/04 10:31:28;;;;;;;6.35;3.78;;;7.80;99.90;;;8.52;100.00;99874.88;5058506;28;20482;-81
2022/02/04 10:34:19;;;;;;;4.30;3.53;;;7.80;99.90;;;8.38;100.00;99867.03;5057565;28;20067;-80
2022/02/04 10:36:57;;;;;;;5.63;3.58;;;7.80;99.90;;;8.59;100.00;99855.56;5057384;28;20028;-80
2022/02/04 10:40:04;;;;;;;6.10;3.08;;;7.90;99.90;;;8.80;100.00;99864.38;5058343;28;20032;-78
2022/02/04 11:01:33;;;;;;;4.55;2.45;;;8.40;99.90;;;9.12;100.00;99812.91;5080270;28;20024;-82
2022/02/04 11:09:54;;;;;;;2.92;2.20;;;8.80;99.90;;;9.41;100.00;99814.25;5076252;28;20498;-80
2022/02/04 11:51:15;;;;;;;1.75;1.48;;;9.10;99.90;;;9.66;100.00;99756.97;5052365;28;20454;-82
2022/02/04 11:53:54;;;;;;;2.17;1.70;;;9.10;99.90;;;9.66;100.00;99740.25;5043690;28;20044;-83
2022/02/04 11:56:21;;;;;;;2.40;1.80;;;9.10;99.90;;;9.68;100.00;99742.63;5051217;28;20369;-82
2022/02/04 11:59:05;;;;;;;4.47;2.00;;;9.00;99.90;;;9.50;100.00;99728.44;5050999;28;20369;-82
2022/02/04 12:01:46;;;;;;;2.40;1.90;;;8.90;99.90;;;9.29;100.00;99714.13;5034926;28;20040;-83
2022/02/04 12:04:21;;;;;;;2.30;1.42;;;8.80;99.90;;;9.33;100.00;99721.38;5043235;28;20067;-85
2022/02/04 12:06:49;;;;;;;3.78;1.80;;;8.70;99.90;;;9.22;100.00;99717.59;5064783;28;20033;-84
2022/02/04 12:09:34;;;;;;;1.80;1.42;;;8.60;99.90;;;9.10;100.00;99716.97;5063791;28;20036;-81
2022/02/04 12:12:04;;;;;;;2.33;1.73;;;8.60;99.90;;;9.13;100.00;99711.47;5050791;28;20028;-82
2022/02/04 12:14:36;;;;;;;2.33;1.67;;;8.50;99.90;;;9.00;100.00;99704.47;5050113;28;20056;-79
2022/02/04 12:17:13;;;;;;;3.28;1.75;;;8.40;99.90;;;8.81;100.00;99718.41;5050464;28;20029;-80
2022/02/04 12:19:52;;;;;;;3.30;1.67;;;8.30;99.90;;;8.97;100.00;99705.19;5050458;28;20035;-81
2022/02/04 12:22:50;;;;;;;3.22;1.70;;;8.40;99.90;;;8.88;100.00;99699.88;5049921;28;20618;-81
2022/02/04 12:25:57;;;;;;;2.42;1.55;;;8.30;99.90;;;8.78;100.00;99688.53;5033366;28;20033;-81
2022/02/04 12:29:08;;;;;;;6.55;1.92;;;8.20;99.90;;;8.74;100.00;99670.94;5030115;28;20120;-79
2022/02/04 12:31:47;;;;;;;2.90;1.50;;;8.20;99.90;;;8.69;100.00;99671.25;5065707;28;20048;-79
2022/02/04 12:34:22;;;;;;;3.28;1.10;;;8.20;99.90;;;8.82;100.00;99656.00;5053684;28;20028;-82
2022/02/04 12:36:58;;;;;;;1.00;0.90;;;8.20;99.90;;;8.89;100.00;99647.78;5070550;28;20448;-81
2022/02/04 12:39:32;;;;;;;1.42;0.90;;;8.30;99.90;;;8.95;98.35;99649.06;5073736;28;20024;-79
2022/02/04 12:42:10;;;;;;;1.45;0.85;;;8.30;99.90;;;8.85;97.93;99663.63;5054163;28;20028;-81
2022/02/04 12:44:43;;;;;;;1.60;0.90;;;8.30;99.90;;;9.00;97.03;99657.09;5071275;28;20147;-82
2022/02/04 12:47:24;;;;;;;1.48;0.98;;;8.30;99.90;;;8.97;96.87;99638.34;5070048;28;20040;-81
2022/02/04 12:49:57;;;;;;;2.58;0.85;;;8.40;99.90;;;8.97;96.44;99636.38;5053110;28;20495;-80
2022/02/04 12:55:06;;;;;;;1.80;1.05;;;8.40;99.90;;;8.95;96.69;99632.38;5071557;28;20391;-81
2022/02/04 13:00:37;;;;;;;2.03;1.10;;;8.40;99.90;;;8.97;96.73;99604.94;5071424;28;20482;-79
2022/02/04 13:03:19;;;;;;;4.55;1.30;;;8.40;99.90;;;9.07;96.27;99607.09;5079460;28;20381;-80
2022/02/04 13:11:18;;;;;;;2.20;1.20;;;8.40;99.90;;;8.85;97.83;99594.81;5087250;28;20028;-80
2022/02/04 13:13:55;;;;;;;2.20;1.10;;;8.30;99.90;;;8.81;98.16;99588.38;5086130;28;20423;-81
2022/02/04 13:16:32;;;;;;;1.65;1.00;;;8.30;99.90;;;8.73;98.37;99592.19;5077331;28;20033;-81
2022/02/04 13:19:05;;;;;;;2.58;1.27;;;8.20;99.90;;;8.79;98.73;99585.16;5091625;28;20036;-82
2022/02/04 13:22:03;;;;;;;1.23;1.00;;;8.20;99.90;;;8.77;98.88;99568.00;5043124;28;20032;-79
2022/02/04 13:24:33;;;;;;;3.47;1.20;;;8.20;99.90;;;8.75;99.04;99564.81;5075049;28;20053;-80
2022/02/04 13:27:23;;;;;;;2.42;1.50;;;8.20;99.90;;;8.75;98.32;99564.00;5075966;28;20052;-81
2022/02/04 13:29:50;;;;;;;4.03;1.25;;;8.30;99.90;;;8.88;97.50;99557.06;5075878;28;20043;-80
2022/02/04 13:32:26;;;;;;;2.35;1.58;;;8.30;99.90;;;8.84;96.59;99565.34;5092425;28;20037;-80
2022/02/04 13:35:41;;;;;;;2.17;1.50;;;8.30;99.90;;;8.93;96.44;99553.94;5074907;28;20121;-82
2022/02/04 13:38:30;;;;;;;2.38;1.67;;;8.40;99.90;;;8.91;96.14;99548.78;5076501;28;20112;-80
2022/02/04 13:41:22;;;;;;;2.85;1.98;;;8.30;99.90;;;8.96;95.84;99559.56;5032815;28;20067;-81
2022/02/04 13:44:18;;;;;;;3.15;1.70;;;8.30;99.90;;;8.98;95.30;99550.84;5073986;28;20086;-82
2022/02/04 13:47:02;;;;;;;1.92;1.58;;;8.40;99.90;;;9.01;95.52;99538.97;5056147;28;20029;-82
2022/02/04 13:49:57;;;;;;;5.55;1.80;;;8.40;99.90;;;9.02;95.01;99539.78;5072512;28;20024;-82
2022/02/04 13:53:12;;;;;;;3.22;2.00;;;8.40;99.90;;;9.12;95.52;99525.22;5073413;28;20023;-82
2022/02/04 13:56:09;;;;;;;3.65;1.90;;;8.50;99.90;;;9.15;93.35;99539.16;5071270;28;20042;-81
2022/02/04 13:58:47;;;;;;;2.65;1.60;;;8.50;99.90;;;9.39;92.26;99529.56;5054973;28;20047;-80
2022/02/04 14:01:28;;;;;;;2.53;1.70;;;8.70;99.90;;;9.41;91.59;99510.47;5073557;28;20071;-80
2022/02/04 14:04:01;;;;;;;2.97;1.50;;;8.80;99.90;;;9.44;89.98;99512.50;5074296;28;20096;-83
2022/02/04 14:06:30;;;;;;;4.72;2.13;;;8.80;99.90;;;9.35;89.34;99495.28;5073432;28;20025;-79
2022/02/04 14:09:04;;;;;;;3.38;1.70;;;8.80;99.90;;;9.31;89.78;99497.22;5055397;28;20020;-80
2022/02/04 14:11:38;;;;;;;3.97;2.10;;;8.80;99.90;;;9.34;88.98;99482.53;5073372;28;20051;-79
2022/02/04 14:14:10;;;;;;;3.03;1.98;;;8.80;99.90;;;9.48;89.38;99477.13;5073415;28;20033;-80
2022/02/04 14:16:38;;;;;;;3.10;1.90;;;8.90;99.90;;;9.69;87.43;99474.63;5072905;28;20020;-79
2022/02/04 14:19:06;;;;;;;4.25;1.83;;;9.00;99.90;;;9.73;87.76;99480.25;5054088;28;20027;-81
2022/02/04 14:21:35;;;;;;;3.90;1.70;;;9.10;99.90;;;9.68;87.90;99475.00;5072985;28;20032;-81
2022/02/04 14:24:09;;;;;;;3.72;2.13;;;9.10;99.90;;;9.43;88.19;99483.88;5055060;28;20150;-80
2022/02/04 14:26:39;;;;;;;3.33;1.83;;;9.00;99.90;;;9.48;88.89;99458.44;5061344;28;20032;-81
2022/02/04 14:29:23;;;;;;;2.75;1.85;;;9.00;99.90;;;9.51;88.79;99448.50;5052728;28;20563;-79
2022/02/04 14:51:38;;;;;;;3.80;2.17;;;8.70;99.90;;;9.14;91.15;99403.88;5031134;28;20554;-82
2022/02/04 15:02:06;;;;;;;2.55;1.58;;;8.60;99.90;;;9.22;89.59;99391.63;5052599;28;20083;-81
2022/02/04 15:04:45;;;;;;;4.05;1.55;;;8.70;99.90;;;9.27;89.55;99410.81;5052219;28;20044;-80
2022/02/04 15:07:12;;;;;;;4.22;1.55;;;8.70;99.90;;;9.26;89.98;99394.47;5052006;28;20031;-79
2022/02/04 15:09:55;;;;;;;4.13;1.83;;;8.70;99.90;;;9.19;89.07;99380.44;5052013;28;20476;-82
2022/02/04 15:12:24;;;;;;;5.05;1.38;;;8.70;99.90;;;9.06;89.96;99406.94;5034248;28;20056;-81
2022/02/04 15:14:50;;;;;;;4.80;1.10;;;8.60;99.90;;;8.97;91.90;99421.94;5052534;28;20025;-82
2022/02/04 15:17:16;;;;;;;2.30;0.90;;;8.50;99.90;;;8.91;92.28;99401.19;5033905;28;20282;-82
2022/02/04 15:19:43;;;;;;;4.68;1.25;;;8.40;99.90;;;8.90;93.24;99399.56;5034028;28;20393;-81
2022/02/04 15:22:14;;;;;;;5.65;1.50;;;8.30;99.90;;;8.82;95.23;99402.66;5033611;28;20079;-82
2022/02/04 15:24:42;;;;;;;4.80;1.58;;;8.30;99.90;;;8.76;96.81;99391.03;5051859;28;20333;-79
2022/02/04 15:27:08;;;;;;;2.35;1.00;;;8.20;99.90;;;8.61;98.47;99380.88;5066379;28;20116;-80
2022/02/04 15:29:40;;;;;;;3.65;1.25;;;8.10;99.90;;;8.39;99.46;99384.50;5071394;28;20024;-81
2022/02/04 15:32:07;;;;;;;3.30;1.35;;;7.90;99.90;;;8.34;100.00;99363.41;5053570;28;20024;-80
2022/02/04 15:34:36;;;;;;;4.20;1.25;;;7.80;99.90;;;8.38;100.00;99364.22;5071477;28;20028;-81
2022/02/04 15:37:03;;;;;;;1.90;1.00;;;7.80;99.90;;;8.17;100.00;99358.31;5071771;28;20032;-79
2022/02/04 15:39:30;;;;;;;5.05;1.30;;;7.70;99.90;;;8.11;100.00;99370.13;5072706;28;20055;-79
2022/02/04 15:42:10;;;;;;;4.43;2.05;;;7.60;99.90;;;8.00;100.00;99358.00;5072145;28;20028;-78
2022/02/04 15:44:58;;;;;;;4.72;1.67;;;7.50;99.90;;;7.80;100.00;99371.19;5059292;28;20028;-79
2022/02/04 15:55:31;;;;;;;2.95;1.40;;;7.10;99.90;;;7.67;100.00;99356.69;5073253;28;20032;-79
2022/02/04 16:05:44;;;;;;;8.00;2.30;;;6.90;99.90;;;7.41;100.00;99364.94;5076602;28;20071;-77
2022/02/04 16:08:17;;;;;;;4.72;1.45;;;6.90;99.90;;;7.46;100.00;99369.34;5076204;28;20021;-80
2022/02/04 16:11:15;;;;;;;7.18;2.30;;;6.90;99.90;;;7.35;100.00;99369.19;5056603;28;20024;-79
2022/02/04 16:13:54;;;;;;;7.97;2.00;;;6.90;99.90;;;7.30;100.00;99370.25;5057470;28;20052;-78
2022/02/04 16:16:25;;;;;;;7.30;2.10;;;6.80;99.90;;;7.34;100.00;99370.34;5080540;28;20032;-81
2022/02/04 16:19:05;;;;;;;9.45;2.45;;;6.80;99.90;;;7.35;100.00;99367.19;5094026;28;20013;-81
2022/02/04 16:21:44;;;;;;;8.13;2.42;;;6.80;99.90;;;7.44;100.00;99375.31;5078578;28;20047;-78
2022/02/04 16:26:50;;;;;;;8.15;1.77;;;6.80;99.90;;;7.34;100.00;99368.38;5080136;28;20044;-79
2022/02/04 16:29:17;;;;;;;4.55;1.85;;;6.80;99.90;;;7.39;100.00;99368.06;5057728;28;20029;-79
2022/02/04 16:31:45;;;;;;;6.18;1.92;;;6.80;99.90;;;7.40;100.00;99372.44;5055138;28;20044;-79
2022/02/04 16:34:12;;;;;;;3.55;1.83;;;6.80;99.90;;;7.46;100.00;99372.13;5055290;28;20029;-79
2022/02/04 16:36:44;;;;;;;5.75;2.00;;;6.90;99.90;;;7.47;100.00;99357.91;5055463;28;20028;-77
2022/02/04 16:39:13;;;;;;;6.68;1.80;;;6.90;99.90;;;7.49;100.00;99358.31;5054638;28;20172;-78